Time;durP1;ratioP1;P1;durP2;ratioP2;P2;SDS_P1;SDS_P2;PMS_P1;PMS_P2;Temp;Humidity;BMP_temperature;BMP_pressure;BME280_temperature;BME280_humidity;BME280_pressure;Samples;Min_cycle;Max_cycle;Signal;HPM_P1;HPM_P2
2022/06/13 00:00:23;;;;;;;15.70;5.43;;;13.50;99.90;;;;;;5072541;28;20048;-84
2022/06/13 00:02:48;;;;;;;19.65;5.72;;;12.90;99.90;;;;;;5072495;28;20123;-82
2022/06/13 00:05:15;;;;;;;14.02;5.38;;;13.50;99.90;;;;;;5073408;28;20511;-83
2022/06/13 00:07:40;;;;;;;13.25;4.97;;;13.10;99.90;;;;;;5073148;28;20408;-81
2022/06/13 00:10:07;;;;;;;21.10;5.65;;;13.10;99.90;;;;;;5055189;28;20044;-82
2022/06/13 00:12:34;;;;;;;16.08;6.07;;;12.80;99.90;;;;;;5073147;28;20041;-83
2022/06/13 00:14:59;;;;;;;17.35;5.72;;;12.90;99.90;;;;;;5071930;28;20089;-83
2022/06/13 00:17:25;;;;;;;15.57;5.53;;;13.10;99.90;;;;;;5071816;28;20490;-82
2022/06/13 00:19:52;;;;;;;15.57;5.68;;;12.70;99.90;;;;;;5055212;28;20439;-83
2022/06/13 00:22:18;;;;;;;23.30;6.53;;;12.70;99.90;;;;;;5072750;28;20036;-83
2022/06/13 00:24:44;;;;;;;15.63;5.75;;;13.30;99.90;;;;;;5072044;28;20437;-82
2022/06/13 00:27:10;;;;;;;23.20;6.13;;;12.80;99.90;;;;;;5071626;28;20075;-82
2022/06/13 00:29:39;;;;;;;13.60;5.65;;;12.90;99.90;;;;;;5072952;28;20082;-82
2022/06/13 00:32:06;;;;;;;16.92;6.28;;;12.60;99.90;;;;;;5073105;28;20051;-83
2022/06/13 00:34:31;;;;;;;15.88;5.60;;;12.60;99.90;;;;;;5072957;28;20131;-82
2022/06/13 00:36:57;;;;;;;16.23;5.85;;;12.60;99.90;;;;;;5071731;28;20135;-83
2022/06/13 00:39:22;;;;;;;13.73;5.60;;;13.10;99.90;;;;;;5072639;28;20120;-82
2022/06/13 00:41:49;;;;;;;20.63;5.93;;;12.80;99.90;;;;;;5071397;28;20398;-82
2022/06/13 00:44:24;;;;;;;17.77;6.35;;;12.90;99.90;;;;;;5072860;28;20080;-83
2022/06/13 00:46:51;;;;;;;15.02;5.70;;;12.60;99.90;;;;;;5071395;28;20080;-82
2022/06/13 00:49:22;;;;;;;18.80;5.60;;;12.60;99.90;;;;;;5072564;28;20052;-82
2022/06/13 00:51:51;;;;;;;18.27;6.63;;;12.70;99.90;;;;;;5072208;28;20091;-82
2022/06/13 00:54:19;;;;;;;16.42;5.60;;;12.60;99.90;;;;;;5072135;28;20059;-81
2022/06/13 00:56:47;;;;;;;13.30;5.70;;;13.40;99.90;;;;;;5105088;28;20713;-82
2022/06/13 00:59:17;;;;;;;16.23;6.55;;;12.60;99.90;;;;;;5072718;28;20085;-81
2022/06/13 01:01:43;;;;;;;19.60;6.75;;;13.00;99.90;;;;;;5071242;28;20495;-82
2022/06/13 01:04:09;;;;;;;17.63;5.43;;;12.60;99.90;;;;;;5072315;28;20048;-82
2022/06/13 01:06:39;;;;;;;16.92;5.63;;;12.60;99.90;;;;;;5072311;28;20127;-82
2022/06/13 01:09:08;;;;;;;16.98;5.72;;;12.60;99.90;;;;;;5053699;28;20091;-82
2022/06/13 01:11:36;;;;;;;19.63;5.70;;;12.60;99.90;;;;;;5072310;28;20056;-82
2022/06/13 01:14:31;;;;;;;18.63;6.20;;;12.70;99.90;;;;;;5071023;28;20058;-83
2022/06/13 01:17:11;;;;;;;13.57;5.17;;;12.60;99.90;;;;;;5070644;28;20047;-83
2022/06/13 01:20:08;;;;;;;15.82;6.10;;;12.60;99.90;;;;;;5070666;28;20048;-82
2022/06/13 01:22:54;;;;;;;17.58;5.65;;;12.50;99.90;;;;;;5071773;28;20040;-83
2022/06/13 01:26:09;;;;;;;22.30;6.10;;;12.50;99.90;;;;;;5071844;28;20162;-84
2022/06/13 01:28:55;;;;;;;15.25;5.07;;;12.50;99.90;;;;;;5070607;28;20080;-83
2022/06/13 01:31:54;;;;;;;15.38;5.90;;;12.50;99.90;;;;;;5070531;28;20131;-84
2022/06/13 01:34:20;;;;;;;16.98;5.93;;;12.40;99.90;;;;;;5032867;28;20071;-84
2022/06/13 01:37:13;;;;;;;15.15;5.57;;;12.40;99.90;;;;;;5016397;28;20595;-82
2022/06/13 01:40:00;;;;;;;19.10;6.75;;;12.40;99.90;;;;;;5048904;28;20079;-83
2022/06/13 01:42:44;;;;;;;13.85;5.53;;;12.40;99.90;;;;;;5049045;28;20056;-82
2022/06/13 01:45:15;;;;;;;15.18;5.75;;;12.40;99.90;;;;;;5032678;28;20404;-82
2022/06/13 01:47:55;;;;;;;12.70;5.47;;;12.40;99.90;;;;;;5048969;28;20044;-83
2022/06/13 01:50:30;;;;;;;15.20;5.97;;;12.30;99.90;;;;;;5032173;28;20069;-81
2022/06/13 01:53:34;;;;;;;20.20;5.43;;;12.30;99.90;;;;;;5032110;28;20057;-81
2022/06/13 01:56:09;;;;;;;15.82;5.93;;;12.30;99.90;;;;;;4969838;28;20624;-83
2022/06/13 01:58:41;;;;;;;;;;;12.30;99.90;;;;;;4954384;28;20062;-82
2022/06/13 02:01:15;;;;;;;21.67;5.57;;;12.30;99.90;;;;;;4954122;28;20057;-82
2022/06/13 02:03:49;;;;;;;17.40;5.72;;;12.30;99.90;;;;;;4969223;28;20141;-82
2022/06/13 02:06:42;;;;;;;14.20;5.95;;;12.80;99.90;;;;;;4953817;28;20058;-82
2022/06/13 02:09:15;;;;;;;18.42;5.60;;;12.20;99.90;;;;;;4952565;28;20465;-82
2022/06/13 02:11:47;;;;;;;18.75;6.25;;;12.20;99.90;;;;;;5004125;28;20704;-83
2022/06/13 02:14:18;;;;;;;15.98;6.75;;;12.40;99.90;;;;;;4992447;28;20077;-81
2022/06/13 02:17:05;;;;;;;22.27;5.90;;;12.20;99.90;;;;;;5008978;28;20042;-84
2022/06/13 02:19:39;;;;;;;24.02;6.65;;;12.20;99.90;;;;;;4992343;28;20069;-82
2022/06/13 02:22:34;;;;;;;16.63;6.38;;;12.20;99.90;;;;;;5009108;28;20416;-82
2022/06/13 02:25:15;;;;;;;25.08;6.53;;;12.30;99.90;;;;;;4937680;28;20073;-82
2022/06/13 02:27:44;;;;;;;17.27;7.28;;;12.30;99.90;;;;;;4953571;28;20101;-81
2022/06/13 02:30:13;;;;;;;24.10;7.15;;;13.00;99.90;;;;;;4954145;28;20867;-82
2022/06/13 02:32:48;;;;;;;22.83;6.45;;;12.40;99.90;;;;;;5010511;28;20053;-82
2022/06/13 02:35:22;;;;;;;15.02;6.10;;;12.50;99.90;;;;;;5011868;28;20144;-82
2022/06/13 02:38:00;;;;;;;20.30;7.82;;;12.40;99.90;;;;;;5011907;28;20080;-82
2022/06/13 02:40:30;;;;;;;23.45;7.95;;;13.30;99.90;;;;;;5044928;28;20056;-82
2022/06/13 02:43:20;;;;;;;19.05;7.15;;;12.50;99.90;;;;;;5027625;28;20472;-82
2022/06/13 02:45:59;;;;;;;16.83;6.50;;;12.50;99.90;;;;;;5028275;28;20302;-82
2022/06/13 02:48:36;;;;;;;23.30;7.28;;;12.50;99.90;;;;;;5011792;28;20153;-84
2022/06/13 02:51:17;;;;;;;23.23;7.95;;;12.90;99.90;;;;;;5028224;28;20052;-82
2022/06/13 02:53:45;;;;;;;22.45;7.30;;;12.50;99.90;;;;;;5028060;28;20511;-83
2022/06/13 02:56:37;;;;;;;19.70;7.57;;;12.60;99.90;;;;;;5011760;28;20061;-83
2022/06/13 02:59:11;;;;;;;20.65;7.05;;;12.60;99.90;;;;;;4995131;28;20047;-83
2022/06/13 03:01:43;;;;;;;24.63;6.82;;;12.60;99.90;;;;;;5064805;28;20071;-82
2022/06/13 03:04:18;;;;;;;18.25;7.43;;;12.60;99.90;;;;;;5069140;28;20136;-82
2022/06/13 03:07:15;;;;;;;15.88;7.22;;;12.60;99.90;;;;;;5070237;28;20052;-82
2022/06/13 03:09:48;;;;;;;19.50;6.85;;;12.60;99.90;;;;;;5070540;28;20055;-81
2022/06/13 03:12:27;;;;;;;20.63;6.22;;;13.10;99.90;;;;;;5068656;28;20135;-82
2022/06/13 03:15:19;;;;;;;15.77;6.55;;;12.60;99.90;;;;;;5070970;28;20123;-82
2022/06/13 03:17:51;;;;;;;17.83;6.57;;;12.70;99.90;;;;;;5073050;28;20083;-82
2022/06/13 03:20:22;;;;;;;19.13;7.05;;;12.70;99.90;;;;;;5074430;28;20060;-84
2022/06/13 03:23:04;;;;;;;19.02;6.68;;;12.70;99.90;;;;;;5072726;28;20076;-81
2022/06/13 03:25:35;;;;;;;16.23;6.10;;;12.70;99.90;;;;;;5074183;28;20154;-81
2022/06/13 03:28:23;;;;;;;18.58;5.93;;;12.90;99.90;;;;;;5072621;28;20056;-82
2022/06/13 03:30:57;;;;;;;18.77;6.47;;;12.70;99.90;;;;;;5074229;28;20127;-82
2022/06/13 03:33:40;;;;;;;19.75;6.72;;;12.70;99.90;;;;;;5074115;28;20052;-81
2022/06/13 03:36:23;;;;;;;15.75;5.65;;;12.80;99.90;;;;;;5072818;28;20057;-82
2022/06/13 03:39:19;;;;;;;20.08;7.40;;;12.70;99.90;;;;;;5074199;28;20040;-82
2022/06/13 03:42:10;;;;;;;18.83;5.97;;;12.70;99.90;;;;;;5072690;28;20408;-83
2022/06/13 03:45:01;;;;;;;21.30;5.90;;;12.70;99.90;;;;;;5071904;28;20175;-81
2022/06/13 03:47:35;;;;;;;19.02;5.88;;;12.60;99.90;;;;;;5056013;28;20096;-81
2022/06/13 03:50:24;;;;;;;9.65;4.65;;;12.60;99.90;;;;;;5073762;28;20132;-84
2022/06/13 03:52:57;;;;;;;12.75;4.20;;;12.60;99.90;;;;;;5073614;28;20044;-83
2022/06/13 03:55:30;;;;;;;11.73;4.93;;;12.50;99.90;;;;;;5072414;28;20083;-82
2022/06/13 03:58:14;;;;;;;17.42;5.55;;;12.50;99.90;;;;;;5073758;28;20070;-82
2022/06/13 04:01:11;;;;;;;13.30;4.72;;;12.50;99.90;;;;;;5072300;28;20045;-83
2022/06/13 04:03:38;;;;;;;11.98;4.38;;;12.50;99.90;;;;;;5072302;28;20059;-79
2022/06/13 04:06:25;;;;;;;14.95;4.13;;;12.90;99.90;;;;;;5073698;28;20115;-81
2022/06/13 04:08:51;;;;;;;11.27;3.78;;;12.50;99.90;;;;;;5073209;28;20055;-80
2022/06/13 04:11:27;;;;;;;15.68;3.80;;;13.00;99.90;;;;;;5073219;28;20044;-81
2022/06/13 04:14:08;;;;;;;9.48;3.35;;;13.10;99.90;;;;;;5071876;28;20048;-81
2022/06/13 04:16:39;;;;;;;12.63;3.55;;;12.50;99.90;;;;;;5073525;28;20044;-82
2022/06/13 04:19:35;;;;;;;13.98;3.58;;;12.50;99.90;;;;;;5073356;28;20076;-81
2022/06/13 04:22:36;;;;;;;14.63;3.22;;;12.50;99.90;;;;;;5073147;28;20036;-80
2022/06/13 04:25:22;;;;;;;9.48;3.00;;;12.60;99.90;;;;;;5071158;28;20113;-83
2022/06/13 04:28:01;;;;;;;11.27;2.75;;;12.60;99.90;;;;;;5072274;28;20437;-81
2022/06/13 04:30:30;;;;;;;7.75;2.78;;;12.60;99.90;;;;;;5073014;28;20102;-82
2022/06/13 04:33:09;;;;;;;10.07;2.67;;;12.60;99.90;;;;;;5072989;28;20041;-84
2022/06/13 04:35:36;;;;;;;9.05;2.60;;;12.70;99.90;;;;;;5072005;28;20052;-84
2022/06/13 04:38:09;;;;;;;10.30;3.05;;;13.00;99.90;;;;;;5073099;28;20041;-82
2022/06/13 04:40:39;;;;;;;9.88;2.28;;;12.70;99.90;;;;;;5072757;28;20051;-83
2022/06/13 04:43:09;;;;;;;11.50;2.40;;;13.10;99.90;;;;;;5072443;28;20052;-83
2022/06/13 04:45:55;;;;;;;10.52;2.25;;;13.40;99.90;;;;;;5071066;28;20056;-83
2022/06/13 04:48:21;;;;;;;10.43;2.30;;;13.00;99.90;;;;;;5054536;28;20044;-83
2022/06/13 04:50:51;;;;;;;10.75;2.10;;;13.00;99.90;;;;;;5072779;28;20040;-82
2022/06/13 04:53:43;;;;;;;10.13;2.47;;;13.20;99.90;;;;;;5072491;28;20048;-81
2022/06/13 04:56:09;;;;;;;7.93;2.00;;;13.80;99.90;;;;;;5068882;28;20577;-82
2022/06/13 04:58:37;;;;;;;15.73;2.17;;;13.20;99.90;;;;;;5073026;28;20032;-84
2022/06/13 05:01:19;;;;;;;11.90;2.45;;;13.10;99.90;;;;;;5071129;28;20056;-79
2022/06/13 05:03:47;;;;;;;8.88;2.13;;;13.00;99.90;;;;;;5072430;28;20048;-85
2022/06/13 05:06:24;;;;;;;6.70;1.58;;;12.90;99.90;;;;;;5054604;28;20041;-81
2022/06/13 05:09:00;;;;;;;5.10;1.00;;;12.80;99.90;;;;;;5072446;28;20048;-83
2022/06/13 05:11:32;;;;;;;2.53;0.80;;;12.60;99.90;;;;;;5072342;28;20465;-83
2022/06/13 05:14:09;;;;;;;2.05;1.00;;;12.70;99.90;;;;;;5071170;28;20127;-81
2022/06/13 05:16:40;;;;;;;3.00;0.80;;;12.40;99.90;;;;;;5070420;28;20098;-82
2022/06/13 05:19:16;;;;;;;2.60;0.70;;;13.30;99.90;;;;;;5070657;28;20147;-82
2022/06/13 05:21:51;;;;;;;1.25;0.50;;;12.40;99.90;;;;;;5072072;28;20215;-82
2022/06/13 05:24:28;;;;;;;3.55;0.63;;;13.10;99.90;;;;;;5072018;28;20088;-81
2022/06/13 05:26:53;;;;;;;2.05;0.70;;;12.70;99.90;;;;;;5072024;28;20051;-82
2022/06/13 05:29:19;;;;;;;2.08;0.55;;;12.30;99.90;;;;;;5071718;28;20399;-82
2022/06/13 05:31:45;;;;;;;2.28;0.65;;;12.30;99.90;;;;;;5070333;28;20046;-82
2022/06/13 05:34:21;;;;;;;3.53;0.80;;;12.70;99.90;;;;;;5071748;28;20495;-83
2022/06/13 05:36:47;;;;;;;2.75;0.65;;;12.60;99.90;;;;;;5071671;28;20139;-84
2022/06/13 05:39:13;;;;;;;1.77;0.70;;;12.50;99.90;;;;;;5053766;28;20551;-84
2022/06/13 05:41:38;;;;;;;4.22;1.00;;;13.10;99.90;;;;;;5071635;28;20052;-82
2022/06/13 05:44:06;;;;;;;2.33;0.70;;;13.00;99.90;;;;;;5071282;28;20458;-84
2022/06/13 05:46:34;;;;;;;2.65;0.80;;;12.70;99.90;;;;;;5070343;28;20049;-83
2022/06/13 05:49:01;;;;;;;4.85;1.40;;;12.80;99.90;;;;;;5071443;28;20422;-83
2022/06/13 05:51:26;;;;;;;4.47;0.90;;;13.50;99.90;;;;;;5054049;28;20467;-84
2022/06/13 05:53:53;;;;;;;4.80;0.90;;;13.60;99.90;;;;;;5104149;28;20056;-85
2022/06/13 05:56:20;;;;;;;2.38;0.90;;;13.50;99.90;;;;;;5070220;28;20083;-84
2022/06/13 05:58:45;;;;;;;5.55;1.08;;;13.20;99.90;;;;;;5071265;28;20097;-84
2022/06/13 06:01:14;;;;;;;4.07;1.17;;;14.00;99.90;;;;;;5071091;28;20044;-82
2022/06/13 06:03:41;;;;;;;6.05;0.90;;;13.50;99.90;;;;;;5070710;28;20106;-85
2022/06/13 06:06:09;;;;;;;7.00;1.17;;;13.70;99.90;;;;;;5053309;28;20051;-84
2022/06/13 06:08:36;;;;;;;5.30;1.10;;;14.50;99.90;;;;;;5069619;28;20052;-85
2022/06/13 06:11:02;;;;;;;7.38;1.08;;;14.30;99.90;;;;;;5069460;28;20036;-83
2022/06/13 06:13:29;;;;;;;8.63;1.05;;;14.60;99.90;;;;;;5070858;28;20044;-84
2022/06/13 06:15:58;;;;;;;6.07;0.90;;;14.10;99.90;;;;;;5069697;28;20048;-85
2022/06/13 06:18:25;;;;;;;6.03;1.30;;;14.10;99.90;;;;;;5069245;28;20174;-84
2022/06/13 06:20:56;;;;;;;5.88;1.45;;;14.40;99.90;;;;;;5071098;28;20044;-87
2022/06/13 06:23:45;;;;;;;2.33;0.80;;;14.50;99.90;;;;;;5052641;28;20043;-86
2022/06/13 06:26:14;;;;;;;5.00;1.50;;;15.00;99.90;;;;;;5031678;28;20435;-87
2022/06/13 06:28:39;;;;;;;6.03;1.10;;;15.10;99.90;;;;;;5048423;28;20057;-84
2022/06/13 06:31:05;;;;;;;8.02;1.13;;;14.60;99.90;;;;;;5031691;28;20053;-85
2022/06/13 06:33:34;;;;;;;4.53;1.05;;;14.70;99.90;;;;;;5015215;28;20404;-87
2022/06/13 06:36:03;;;;;;;8.07;1.20;;;14.70;99.90;;;;;;5015333;28;20051;-88
2022/06/13 06:38:29;;;;;;;8.98;1.30;;;15.10;99.90;;;;;;5048354;28;20408;-86
2022/06/13 06:40:57;;;;;;;3.50;0.98;;;15.50;99.90;;;;;;5048205;28;20515;-87
2022/06/13 06:43:26;;;;;;;4.97;1.48;;;15.20;99.90;;;;;;5031173;28;20515;-86
2022/06/13 06:45:51;;;;;;;9.30;1.25;;;15.30;99.90;;;;;;5031178;28;20065;-85
2022/06/13 06:48:21;;;;;;;7.43;1.30;;;15.10;99.90;;;;;;5014855;28;20106;-86
2022/06/13 06:51:00;;;;;;;6.65;1.63;;;15.50;99.90;;;;;;5030905;28;20140;-86
2022/06/13 07:02:02;;;;;;;10.13;1.60;;;15.90;99.90;;;;;;5031691;28;20049;-86
2022/06/13 07:04:28;;;;;;;14.50;2.13;;;15.90;99.90;;;;;;5069087;28;20045;-83
2022/06/13 07:06:54;;;;;;;5.93;1.00;;;15.80;99.90;;;;;;5070634;28;20044;-83
2022/06/13 07:09:20;;;;;;;5.15;1.02;;;15.60;99.90;;;;;;5070464;28;20158;-78
2022/06/13 07:11:54;;;;;;;6.10;1.00;;;15.10;99.90;;;;;;5070376;28;20052;-81
2022/06/13 07:14:21;;;;;;;;;;;14.70;99.90;;;;;;5070574;28;20102;-81
2022/06/13 07:16:47;;;;;;;7.18;1.25;;;14.70;99.90;;;;;;5068823;28;19931;-81
2022/06/13 07:19:12;;;;;;;5.88;1.33;;;14.60;99.90;;;;;;5070334;28;20399;-80
2022/06/13 07:21:38;;;;;;;8.27;1.40;;;15.20;99.90;;;;;;5070237;28;20510;-81
2022/06/13 07:24:04;;;;;;;6.70;1.33;;;15.30;99.90;;;;;;5068886;28;20094;-81
2022/06/13 07:26:31;;;;;;;12.52;2.42;;;15.10;99.90;;;;;;5070471;28;20048;-79
2022/06/13 07:28:57;;;;;;;5.93;1.55;;;15.40;99.90;;;;;;5070276;28;20124;-80
2022/06/13 07:31:38;;;;;;;9.75;1.67;;;15.40;99.90;;;;;;5052397;28;20075;-86
2022/06/13 07:34:06;;;;;;;5.93;1.40;;;15.50;99.90;;;;;;5070564;28;20043;-84
2022/06/13 07:36:32;;;;;;;7.70;1.30;;;15.50;99.90;;;;;;5068763;28;20098;-84
2022/06/13 07:39:04;;;;;;;7.30;1.30;;;15.70;99.90;;;;;;5069019;28;20120;-85
2022/06/13 07:41:29;;;;;;;11.35;1.58;;;15.30;99.90;;;;;;5068997;28;20058;-81
2022/06/13 07:43:57;;;;;;;9.50;1.52;;;15.40;99.90;;;;;;5069607;28;20052;-83
2022/06/13 07:46:29;;;;;;;8.48;1.65;;;15.20;99.90;;;;;;5068981;28;20048;-83
2022/06/13 07:48:55;;;;;;;10.43;1.85;;;15.50;99.90;;;;;;5069919;28;20040;-84
2022/06/13 07:51:24;;;;;;;7.65;1.60;;;16.30;99.90;;;;;;5068590;28;20037;-83
2022/06/13 07:53:50;;;;;;;9.27;1.55;;;15.80;99.90;;;;;;5068653;28;20055;-78
2022/06/13 07:56:22;;;;;;;13.68;1.55;;;15.80;99.90;;;;;;5069808;28;20043;-79
2022/06/13 07:58:50;;;;;;;5.18;1.00;;;15.50;99.90;;;;;;5069875;28;20102;-80
2022/06/13 08:01:17;;;;;;;7.78;1.27;;;15.20;99.90;;;;;;5070054;28;20044;-79
2022/06/13 08:03:43;;;;;;;8.55;1.20;;;15.10;99.90;;;;;;5071828;28;20053;-81
2022/06/13 08:06:10;;;;;;;11.20;1.10;;;15.10;99.90;;;;;;5071772;28;20415;-78
2022/06/13 08:08:36;;;;;;;7.93;1.02;;;15.80;99.90;;;;;;5073554;28;20059;-77
2022/06/13 08:11:04;;;;;;;7.70;2.00;;;15.50;99.90;;;;;;5073159;28;20564;-85
2022/06/13 08:13:31;;;;;;;3.60;0.57;;;15.80;99.90;;;;;;5073273;28;20526;-84
2022/06/13 08:15:57;;;;;;;7.55;0.82;;;15.90;99.90;;;;;;5072063;28;20044;-81
2022/06/13 08:18:23;;;;;;;7.30;0.80;;;16.20;99.90;;;;;;5073060;28;20521;-83
2022/06/13 08:20:49;;;;;;;6.97;1.23;;;16.00;99.90;;;;;;5073357;28;20044;-87
2022/06/13 08:23:17;;;;;;;5.35;0.80;;;16.30;99.90;;;;;;5072757;28;20506;-86
2022/06/13 08:25:48;;;;;;;4.80;0.85;;;16.40;99.90;;;;;;5073237;28;20052;-82
2022/06/13 08:28:17;;;;;;;4.82;0.75;;;16.00;99.90;;;;;;5071545;28;20059;-86
2022/06/13 08:30:57;;;;;;;7.43;0.93;;;16.00;99.90;;;;;;5071621;28;20051;-82
2022/06/13 08:33:24;;;;;;;5.38;0.85;;;16.30;99.90;;;;;;5073077;28;20131;-88
2022/06/13 08:35:50;;;;;;;5.43;0.80;;;16.70;99.90;;;;;;5072878;28;20051;-79
2022/06/13 08:38:17;;;;;;;12.75;1.02;;;16.80;99.90;;;;;;5071118;28;20064;-82
2022/06/13 08:41:08;;;;;;;5.53;0.80;;;16.70;99.90;;;;;;5072654;28;20051;-85
2022/06/13 08:44:09;;;;;;;9.15;1.05;;;16.40;99.90;;;;;;5072569;28;20067;-82
2022/06/13 08:46:50;;;;;;;5.97;0.98;;;16.10;99.90;;;;;;5072789;28;20135;-86
2022/06/13 08:49:41;;;;;;;6.25;0.90;;;16.30;99.90;;;;;;5071325;28;20574;-82
2022/06/13 08:52:06;;;;;;;4.15;1.08;;;16.70;99.90;;;;;;5054011;28;20139;-83
2022/06/13 08:54:34;;;;;;;11.25;0.95;;;17.10;99.90;;;;;;5072762;28;20132;-85
2022/06/13 08:57:09;;;;;;;5.30;1.50;;;16.90;99.90;;;;;;5072834;28;20098;-87
2022/06/13 08:59:50;;;;;;;7.53;1.23;;;16.40;99.90;;;;;;5071337;28;20127;-79
2022/06/13 09:02:18;;;;;;;10.13;1.00;;;16.70;99.90;;;;;;5054335;28;20048;-86
2022/06/13 09:05:08;;;;;;;9.40;1.27;;;17.10;99.90;;;;;;5072637;28;20123;-85
2022/06/13 09:07:51;;;;;;;7.78;1.20;;;16.90;99.90;;;;;;5070679;28;20040;-84
2022/06/13 09:10:32;;;;;;;9.20;1.00;;;16.60;99.90;;;;;;5071293;28;20064;-89
2022/06/13 09:13:07;;;;;;;11.73;1.50;;;16.10;99.90;;;;;;5070792;28;20036;-85
2022/06/13 09:16:17;;;;;;;5.03;0.98;;;16.60;99.90;;;;;;5071963;28;20048;-85
2022/06/13 09:19:13;;;;;;;10.27;0.95;;;17.10;99.90;;;;;;5070717;28;20588;-88
2022/06/13 09:22:04;;;;;;;12.60;1.77;;;17.30;99.90;;;;;;5071948;28;20109;-85
2022/06/13 09:24:44;;;;;;;7.93;1.40;;;17.30;99.90;;;;;;5071804;28;20392;-77
2022/06/13 09:27:21;;;;;;;9.50;1.40;;;16.70;99.90;;;;;;5070789;28;20387;-83
2022/06/13 09:29:51;;;;;;;9.65;1.50;;;16.50;99.90;;;;;;5071954;28;20503;-81
2022/06/13 09:32:22;;;;;;;9.30;1.58;;;16.60;99.90;;;;;;5071857;28;20085;-80
2022/06/13 09:34:53;;;;;;;8.80;1.50;;;16.80;99.90;;;;;;5070196;28;20590;-79
2022/06/13 09:37:38;;;;;;;6.07;1.20;;;16.60;99.90;;;;;;5071573;28;20055;-79
2022/06/13 09:40:05;;;;;;;9.93;1.63;;;16.10;99.90;;;;;;5071651;28;20222;-79
2022/06/13 09:42:56;;;;;;;5.60;1.00;;;15.70;99.90;;;;;;5070175;28;20063;-79
2022/06/13 09:45:25;;;;;;;6.75;1.05;;;15.50;99.90;;;;;;5070119;28;20053;-80
2022/06/13 09:48:29;;;;;;;9.65;1.73;;;15.60;99.90;;;;;;5071212;28;20044;-80
2022/06/13 09:51:36;;;;;;;12.98;1.88;;;15.60;99.90;;;;;;5071444;28;20056;-81
2022/06/13 09:54:12;;;;;;;8.55;1.40;;;15.60;99.90;;;;;;5069876;28;20083;-82
2022/06/13 09:56:58;;;;;;;5.68;1.17;;;15.60;99.90;;;;;;5070276;28;20102;-81
2022/06/13 09:59:38;;;;;;;10.15;1.30;;;15.90;99.90;;;;;;5071384;28;20124;-81
2022/06/13 10:02:18;;;;;;;8.20;1.52;;;16.00;99.90;;;;;;5071130;28;20044;-80
2022/06/13 10:05:04;;;;;;;12.00;1.50;;;15.80;99.90;;;;;;5071004;28;20117;-81
2022/06/13 10:07:41;;;;;;;8.98;1.05;;;15.80;99.90;;;;;;5053773;28;20061;-80
2022/06/13 10:10:10;;;;;;;7.78;1.20;;;16.10;99.90;;;;;;5071192;28;20143;-81
2022/06/13 10:13:16;;;;;;;9.80;1.30;;;16.30;99.90;;;;;;5069791;28;20051;-83
2022/06/13 10:16:00;;;;;;;;;;;16.60;99.90;;;;;;5071489;28;20174;-78
2022/06/13 10:18:54;;;;;;;9.02;1.17;;;16.80;99.90;;;;;;5069762;28;19927;-80
2022/06/13 10:21:46;;;;;;;8.35;1.83;;;16.80;99.90;;;;;;5068047;28;20056;-84
2022/06/13 10:24:23;;;;;;;10.07;1.48;;;16.60;99.90;;;;;;5070654;28;20048;-80
2022/06/13 10:27:07;;;;;;;9.55;1.52;;;16.90;99.90;;;;;;5070553;28;20049;-79
2022/06/13 10:29:36;;;;;;;18.50;2.33;;;16.60;99.90;;;;;;5071294;28;20387;-86
2022/06/13 10:32:15;;;;;;;5.50;1.20;;;16.60;99.90;;;;;;5070755;28;20044;-84
2022/06/13 10:34:59;;;;;;;9.18;1.58;;;16.80;99.90;;;;;;5069453;28;20055;-86
2022/06/13 10:37:31;;;;;;;6.57;1.30;;;17.30;99.90;;;;;;5069513;28;20098;-84
2022/06/13 10:40:01;;;;;;;11.15;1.52;;;17.00;99.90;;;;;;5070529;28;20048;-80
2022/06/13 10:42:29;;;;;;;9.68;1.52;;;16.90;99.90;;;;;;5070070;28;20052;-86
2022/06/13 10:44:59;;;;;;;12.05;2.15;;;16.60;99.90;;;;;;5070574;28;20135;-84
2022/06/13 10:48:03;;;;;;;7.53;1.45;;;16.40;99.90;;;;;;5069489;28;20135;-85
2022/06/13 10:50:39;;;;;;;8.07;1.38;;;16.40;99.90;;;;;;5070671;28;20171;-90
2022/06/13 10:53:12;;;;;;;7.57;1.40;;;16.50;99.90;;;;;;5070436;28;20450;-82
2022/06/13 10:55:54;;;;;;;9.77;1.67;;;16.90;99.90;;;;;;5070444;28;20048;-89
2022/06/13 10:58:40;;;;;;;8.00;1.67;;;17.30;99.90;;;;;;5070395;28;20043;-82
2022/06/13 11:01:17;;;;;;;10.20;1.70;;;17.60;99.90;;;;;;5069221;28;20504;-83
2022/06/13 11:03:59;;;;;;;9.20;1.25;;;17.30;99.90;;;;;;5070336;28;20082;-83
2022/06/13 11:06:54;;;;;;;16.75;1.92;;;17.30;99.90;;;;;;5070427;28;20060;-92
2022/06/13 11:09:25;;;;;;;12.30;1.17;;;16.80;99.90;;;;;;5069244;28;20076;-84
2022/06/13 11:12:00;;;;;;;6.35;1.95;;;16.70;99.90;;;;;;5051871;28;20057;-85
2022/06/13 11:22:37;;;;;;;11.98;1.65;;;17.00;99.90;;;;;;5070637;28;20049;-84
2022/06/13 11:23:10;;;;;;;13.77;2.10;;;17.10;99.90;;;;;;5069039;28;20052;-88
2022/06/13 11:25:36;;;;;;;12.68;1.55;;;17.20;99.90;;;;;;5070467;28;20040;-86
2022/06/13 11:28:15;;;;;;;15.43;2.42;;;17.40;99.90;;;;;;5068719;28;20168;-87
2022/06/13 11:30:47;;;;;;;8.45;1.48;;;16.90;99.90;;;;;;5052212;28;20484;-85
2022/06/13 11:33:12;;;;;;;9.55;1.25;;;17.10;99.90;;;;;;5070393;28;20047;-85
2022/06/13 11:35:46;;;;;;;10.88;1.67;;;17.10;99.90;;;;;;5069089;28;20480;-83
2022/06/13 11:38:41;;;;;;;16.55;2.33;;;17.20;99.90;;;;;;5072609;28;20107;-84
2022/06/13 11:41:21;;;;;;;8.85;1.95;;;17.00;99.90;;;;;;5071114;28;20052;-88
2022/06/13 11:44:15;;;;;;;11.20;1.83;;;16.90;99.90;;;;;;5055550;28;20060;-85
2022/06/13 11:46:58;;;;;;;10.95;1.65;;;16.90;99.90;;;;;;5056201;28;20117;-88
2022/06/13 11:49:41;;;;;;;10.88;1.58;;;17.20;99.90;;;;;;5073859;28;20085;-85
2022/06/13 11:55:24;;;;;;;6.45;1.30;;;18.10;99.90;;;;;;5073440;28;20155;-88
2022/06/13 11:57:56;;;;;;;9.70;1.80;;;18.50;99.90;;;;;;5073479;28;20044;-87
2022/06/13 12:00:52;;;;;;;9.48;1.35;;;18.70;99.90;;;;;;5073617;28;20119;-86
2022/06/13 12:03:24;;;;;;;6.95;1.55;;;18.90;99.90;;;;;;5034139;28;20067;-85
2022/06/13 12:06:05;;;;;;;7.18;1.73;;;18.70;99.90;;;;;;5049850;28;20570;-91
2022/06/13 12:08:31;;;;;;;8.80;1.48;;;18.40;99.90;;;;;;5034183;28;20087;-90
2022/06/13 12:11:15;;;;;;;7.10;1.58;;;18.50;99.90;;;;;;5034294;28;20127;-89
2022/06/13 12:13:46;;;;;;;10.90;1.60;;;18.70;99.90;;;;;;5050667;28;20049;-90
2022/06/13 12:16:54;;;;;;;11.90;1.77;;;18.40;99.90;;;;;;5018900;28;20098;-89
2022/06/13 12:19:37;;;;;;;10.90;2.05;;;18.00;99.90;;;;;;4936614;28;20100;-90
2022/06/13 12:22:27;;;;;;;11.63;1.23;;;17.90;99.90;;;;;;4936737;29;20047;-89
2022/06/13 12:25:33;;;;;;;5.00;1.40;;;18.00;99.90;;;;;;4952590;28;20574;-86
2022/06/13 12:28:09;;;;;;;7.47;1.17;;;17.80;99.90;;;;;;4895525;29;20073;-85
2022/06/13 12:30:51;;;;;;;6.50;1.40;;;17.70;99.90;;;;;;4879497;29;20056;-86
2022/06/13 12:33:49;;;;;;;7.63;1.58;;;18.00;99.90;;;;;;4879858;29;20063;-87
2022/06/13 12:36:36;;;;;;;9.82;1.48;;;17.90;99.90;;;;;;4879376;29;20059;-87
2022/06/13 12:39:30;;;;;;;11.35;2.28;;;17.70;99.90;;;;;;4882813;29;20071;-88
2022/06/13 12:42:14;;;;;;;11.82;1.95;;;18.00;99.90;;;;;;4917661;29;20051;-90
2022/06/13 12:44:47;;;;;;;8.53;1.53;;;17.80;99.90;;;;;;4917031;29;20074;-85
2022/06/13 12:47:55;;;;;;;14.63;1.60;;;18.00;99.90;;;;;;4933442;29;20075;-91
2022/06/13 12:50:58;;;;;;;8.32;1.77;;;17.80;99.90;;;;;;4933092;28;20143;-86
2022/06/13 12:54:08;;;;;;;9.15;1.85;;;17.80;99.90;;;;;;4914260;29;20063;-87
2022/06/13 12:56:52;;;;;;;8.45;1.10;;;17.50;99.90;;;;;;4908501;29;20145;-83
2022/06/13 12:59:51;;;;;;;7.43;1.02;;;17.30;99.90;;;;;;4920006;28;20059;-91
2022/06/13 13:03:00;;;;;;;7.70;1.05;;;17.20;99.90;;;;;;4920346;29;20149;-87
2022/06/13 13:06:05;;;;;;;7.97;1.23;;;17.10;99.90;;;;;;4992948;28;20145;-90
2022/06/13 13:09:09;;;;;;;7.45;1.30;;;17.60;99.90;;;;;;4994263;28;20137;-91
2022/06/13 13:11:59;;;;;;;10.30;1.00;;;17.90;99.90;;;;;;5010421;28;20098;-93
2022/06/13 13:15:29;;;;;;;5.85;1.08;;;17.80;99.90;;;;;;4993826;28;20050;-88
2022/06/13 13:18:19;;;;;;;3.55;0.75;;;17.70;99.90;;;;;;4951675;28;20566;-87
2022/06/13 13:21:46;;;;;;;4.82;0.98;;;17.70;99.90;;;;;;4952015;28;20095;-88
2022/06/13 13:24:48;;;;;;;;;;;17.70;99.90;;;;;;4862322;29;20061;-89
2022/06/13 13:27:19;;;;;;;7.07;0.80;;;17.60;99.90;;;;;;4857771;29;19915;-86
2022/06/13 13:30:25;;;;;;;7.85;1.23;;;17.50;99.90;;;;;;4869523;29;20057;-89
2022/06/13 13:33:24;;;;;;;5.55;1.23;;;17.30;99.90;;;;;;4857221;29;20100;-87
2022/06/13 13:36:18;;;;;;;5.80;1.00;;;17.30;99.90;;;;;;4826915;29;20053;-87
2022/06/13 13:39:33;;;;;;;7.63;1.60;;;17.10;99.90;;;;;;4842089;29;20761;-90
2022/06/13 13:42:44;;;;;;;5.78;1.15;;;16.90;99.90;;;;;;4824103;29;20046;-92
2022/06/13 13:45:35;;;;;;;6.43;0.90;;;16.90;99.90;;;;;;4838669;29;20061;-88
2022/06/13 13:48:33;;;;;;;7.32;1.08;;;17.00;99.90;;;;;;4838571;29;20118;-88
2022/06/13 13:51:48;;;;;;;7.93;0.95;;;17.30;99.90;;;;;;4824657;29;20502;-88
2022/06/13 13:54:46;;;;;;;14.98;1.75;;;17.80;99.90;;;;;;4860285;29;20067;-90